Latest Weather Observations for Ben Nevis

IDV60801

Issued at 11:31 am EST Friday 29 April 2016 (issued every 30 minutes, with the page automatically refreshed every 10 minutes)

About weather observations | Map of weather stations | Latest weather observations for VIC | Other Formats
Station Details ID: 079101 Name: BEN NEVIS Lat: -37.23 Lon: 143.20 Height: 875.0 m
Data from the previous 72 hours. | See also: Recent months at Ben Nevis
Date/Time
EST
Temp
°C
App
Temp
°C
Dew
Point
Rel
Hum
%
Delta-T
°C
Wind Press
QNH
hPa
Press
MSL
hPa
Rain
since 9 am
mm
Dir
 
Spd
km/h
Gust
km/h
Spd
kts
Gust
kts
29/11:30am 11.4 8.9 10.9 97 0.3 NNW 15 26 8 14 - - 1.0
29/11:00am 11.1 8.0 10.3 95 0.4 N 17 26 9 14 - - 1.0
29/10:30am 11.2 8.0 10.0 92 0.6 NNW 17 28 9 15 - - 0.6
29/10:00am 11.7 8.7 9.4 86 1.2 N 15 33 8 18 - - 0.4
29/09:30am 12.4 8.9 8.9 79 1.8 N 17 30 9 16 - - 0.2
29/09:00am 13.4 10.4 7.6 68 3.0 N 13 26 7 14 - - 1.0
29/08:30am 13.9 10.4 7.2 64 3.4 NNW 15 30 8 16 - - 1.0
29/08:00am 13.9 10.0 7.2 64 3.4 N 17 26 9 14 - - 1.0
29/07:30am 13.4 9.7 7.8 69 2.9 NNW 17 24 9 13 - - 1.0
29/07:00am 13.2 9.9 7.9 70 2.7 NNW 15 26 8 14 - - 1.0
29/06:30am 13.7 11.1 7.7 67 3.1 ENE 11 20 6 11 - - 1.0
29/06:00am 15.2 10.3 8.4 64 3.6 N 24 44 13 24 - - 1.0
29/05:30am 14.0 8.5 9.2 73 2.6 N 28 57 15 31 - - 1.0
29/05:15am 16.6 10.7 7.5 55 4.8 N 28 57 15 31 - - 0.8
29/05:00am 16.5 11.4 7.7 56 4.6 N 24 39 13 21 - - 0.8
29/04:30am 16.1 11.9 7.6 57 4.5 N 19 32 10 17 - - 0.8
29/04:00am 16.8 11.3 7.7 55 4.8 N 26 48 14 26 - - 0.8
29/03:33am 16.9 10.9 7.0 52 5.2 N 28 46 15 25 - - 0.8
29/03:30am 17.0 10.6 7.1 52 5.2 N 30 46 16 25 - - 0.8
29/03:00am 17.0 10.7 5.6 47 5.8 N 28 50 15 27 - - 0.8
29/02:30am 17.2 10.4 5.2 45 6.0 N 30 48 16 26 - - 0.8
29/02:00am 17.0 10.5 4.7 44 6.1 N 28 46 15 25 - - 0.8
29/01:48am 17.1 10.6 4.8 44 6.1 N 28 46 15 25 - - 0.8
29/01:30am 16.9 10.8 4.9 45 6.0 N 26 48 14 26 - - 0.8
29/01:00am 16.6 11.9 5.3 47 5.7 N 19 37 10 20 - - 0.8
29/12:30am 15.6 10.7 6.9 56 4.5 N 22 41 12 22 - - 0.8
29/12:00am 16.9 11.3 5.5 47 5.8 N 24 41 13 22 - - 0.8
 
Date/Time
EST
Temp
°C
App
Temp
°C
Dew
Point
Rel
Hum
%
Delta-T
°C
Wind Press
QNH
hPa
Press
MSL
hPa
Rain
since 9 am
mm
Dir
 
Spd
km/h
Gust
km/h
Spd
kts
Gust
kts
28/11:30pm 16.8 10.4 5.1 46 5.9 N 28 44 15 24 - - 0.8
28/11:00pm 16.9 10.9 5.5 47 5.8 N 26 39 14 21 - - 0.8
28/10:30pm 17.1 11.1 5.1 45 6.0 N 26 41 14 22 - - 0.8
28/10:00pm 16.8 12.2 6.3 50 5.4 N 20 33 11 18 - - 0.8
28/09:30pm 16.3 12.1 7.3 55 4.7 N 19 32 10 17 - - 0.8
28/09:00pm 15.6 12.7 8.1 61 4.0 N 13 28 7 15 - - 0.8
28/08:30pm 14.6 12.3 9.0 69 3.0 N 11 17 6 9 - - 0.8
28/08:00pm 14.5 11.8 9.1 70 2.9 N 13 20 7 11 - - 0.8
28/07:30pm 14.8 11.8 9.4 70 2.9 N 15 24 8 13 - - 0.8
28/07:00pm 14.5 11.6 9.7 73 2.6 NNW 15 28 8 15 - - 0.8
28/06:30pm 13.8 11.4 10.0 78 2.1 N 13 22 7 12 - - 0.8
28/06:00pm 14.7 12.4 9.1 69 3.0 N 11 22 6 12 - - 0.8
28/05:30pm 15.0 12.7 9.1 68 3.2 N 11 17 6 9 - - 0.8
28/05:00pm 15.3 13.1 9.2 67 3.3 N 11 19 6 10 - - 0.8
28/04:30pm 15.7 13.4 9.1 65 3.6 NNW 11 20 6 11 - - 0.8
28/04:00pm 15.8 13.1 9.0 64 3.7 N 13 20 7 11 - - 0.8
28/03:30pm 16.1 13.1 9.3 64 3.7 N 15 24 8 13 - - 0.8
28/03:00pm 16.2 13.3 9.6 65 3.6 N 15 22 8 12 - - 0.8
28/02:30pm 16.7 13.9 10.1 65 3.6 N 15 24 8 13 - - 0.8
28/02:00pm 17.7 14.4 10.8 64 3.9 N 19 30 10 16 - - 0.8
28/01:30pm 15.5 13.0 11.1 75 2.5 N 15 24 8 13 - - 0.8
28/01:00pm 14.2 13.1 11.9 86 1.3 NNW 9 20 5 11 - - 0.8
28/12:30pm 13.3 11.4 10.5 83 1.5 NNW 11 15 6 8 - - 0.6
28/12:00pm 13.0 10.9 11.2 89 1.0 W 13 20 7 11 - - 0.6
28/11:30am 13.9 12.0 8.9 72 2.7 NNW 9 24 5 13 - - 0.0
28/11:00am 14.8 12.2 9.4 70 2.9 NNW 13 24 7 13 - - 0.0
28/10:30am 14.9 11.5 9.3 69 3.0 NNW 17 26 9 14 - - 0.0
28/10:00am 15.0 11.6 9.1 68 3.2 NNW 17 32 9 17 - - 0.0
28/09:30am 15.3 11.2 8.5 64 3.6 NNW 20 35 11 19 - - 0.0
28/09:00am 13.9 9.5 8.9 72 2.7 N 22 52 12 28 - - 0.6
28/08:30am 13.5 10.1 9.2 75 2.3 NNW 17 30 9 16 - - 0.4
28/08:00am 12.7 10.0 9.0 78 2.0 NNW 13 24 7 13 - - 0.4
28/07:30am 11.9 9.8 9.8 87 1.1 NNW 11 19 6 10 - - 0.4
28/07:00am 13.4 9.6 6.0 61 3.7 NNW 15 28 8 15 - - 0.0
28/06:30am 13.7 10.1 6.6 62 3.6 NNW 15 32 8 17 - - 0.0
28/06:00am 14.9 9.8 4.0 48 5.3 NNW 20 35 11 19 - - 0.0
28/05:30am 15.3 10.3 3.5 45 5.7 NNW 19 35 10 19 - - 0.0
28/05:00am 16.0 10.0 3.4 43 6.1 NNW 24 41 13 22 - - 0.0
28/04:30am 16.3 11.3 3.7 43 6.1 N 19 35 10 19 - - 0.0
28/04:00am 16.5 11.3 3.6 42 6.3 N 20 35 11 19 - - 0.0
28/03:30am 16.9 11.7 3.6 41 6.5 N 20 35 11 19 - - 0.0
28/03:00am 16.9 11.4 3.9 42 6.4 N 22 39 12 21 - - 0.0
28/02:30am 16.9 11.0 3.9 42 6.4 N 24 52 13 28 - - 0.0
28/02:00am 17.0 11.1 3.7 41 6.5 N 24 44 13 24 - - 0.0
28/01:35am 16.9 10.2 3.6 41 6.5 N 28 48 15 26 - - 0.0
28/01:30am 16.9 10.5 3.2 40 6.6 N 26 48 14 26 - - 0.0
28/01:00am 16.9 10.9 3.2 40 6.6 N 24 50 13 27 - - 0.0
28/12:30am 17.0 10.2 3.0 39 6.7 N 28 46 15 25 - - 0.0
28/12:00am 17.0 10.1 2.6 38 6.9 N 28 46 15 25 - - 0.0
 
Date/Time
EST
Temp
°C
App
Temp
°C
Dew
Point
Rel
Hum
%
Delta-T
°C
Wind Press
QNH
hPa
Press
MSL
hPa
Rain
since 9 am
mm
Dir
 
Spd
km/h
Gust
km/h
Spd
kts
Gust
kts
27/11:57pm 17.0 10.1 2.6 38 6.9 N 28 46 15 25 - - 0.0
27/11:30pm 17.1 10.6 2.7 38 6.9 N 26 41 14 22 - - 0.0
27/11:00pm 16.9 10.4 2.9 39 6.7 N 26 46 14 25 - - 0.0
27/10:39pm 17.2 10.4 3.1 39 6.8 N 28 52 15 28 - - 0.0
27/10:30pm 16.9 10.9 3.2 40 6.6 N 24 48 13 26 - - 0.0
27/10:00pm 17.2 11.2 3.5 40 6.7 N 24 41 13 22 - - 0.0
27/09:30pm 16.9 11.4 3.9 42 6.4 N 22 37 12 20 - - 0.0
27/09:00pm 17.0 11.5 4.0 42 6.4 N 22 43 12 23 - - 0.0
27/08:30pm 17.3 11.8 3.9 41 6.6 N 22 44 12 24 - - 0.0
27/08:00pm 17.3 12.2 4.3 42 6.4 N 20 39 11 21 - - 0.0
27/07:30pm 17.4 12.4 4.4 42 6.4 N 20 37 11 20 - - 0.0
27/07:00pm 17.4 12.4 4.4 42 6.4 N 20 39 11 21 - - 0.0
27/06:30pm 17.6 12.2 4.6 42 6.5 N 22 35 12 19 - - 0.0
27/06:00pm 18.0 13.0 4.6 41 6.7 N 20 37 11 20 - - 0.0
27/05:30pm 18.6 13.6 4.4 39 7.1 N 20 33 11 18 - - 0.0
27/05:00pm 19.2 14.1 4.2 37 7.5 N 20 43 11 23 - - 0.0
27/04:30pm 19.3 14.2 4.3 37 7.5 N 20 37 11 20 - - 0.0
27/04:00pm 20.0 14.1 4.1 35 8.0 N 24 39 13 21 - - 0.0
27/03:30pm 20.9 15.7 5.3 36 8.1 N 22 41 12 22 - - 0.0
27/03:00pm 19.9 14.1 4.4 36 7.8 N 24 46 13 25 - - 0.0
27/02:30pm 20.6 14.4 4.2 34 8.3 N 26 44 14 24 - - 0.0
27/02:19pm 20.3 13.8 4.8 36 7.9 NNW 28 48 15 26 - - 0.0
27/02:00pm 20.9 15.2 4.9 35 8.2 N 24 44 13 24 - - 0.0
27/01:30pm 20.5 14.0 4.9 36 8.0 N 28 48 15 26 - - 0.0
27/01:26pm 20.7 14.3 5.1 36 8.0 N 28 48 15 26 - - 0.0
27/01:00pm 20.1 14.6 5.7 39 7.5 N 24 46 13 25 - - 0.0
27/12:46pm 19.5 13.2 5.6 40 7.2 N 28 50 15 27 - - 0.0
27/12:30pm 20.0 14.1 6.0 40 7.3 N 26 46 14 25 - - 0.0
27/12:00pm 18.9 13.1 6.1 43 6.6 N 26 46 14 25 - - 0.0
27/11:30am 18.4 12.2 6.3 45 6.3 N 28 54 15 29 - - 0.0
27/11:00am 17.9 11.7 6.1 46 6.1 N 28 48 15 26 - - 0.0
27/10:30am 17.4 11.2 6.0 47 5.8 N 28 48 15 26 - - 0.0
27/10:00am 17.7 11.5 6.3 47 5.9 N 28 48 15 26 - - 0.0
27/09:30am 16.1 9.4 5.4 49 5.4 N 30 54 16 29 - - 0.0
27/09:02am 15.8 9.4 5.4 50 5.2 N 28 46 15 25 - - 0.0
27/09:00am 15.8 9.8 5.4 50 5.2 N 26 46 14 25 - - 0.0
27/08:30am 15.5 9.1 5.4 51 5.0 N 28 54 15 29 - - 0.0
27/08:00am 16.0 9.4 5.9 51 5.1 N 30 52 16 28 - - 0.0
27/07:30am 15.0 7.9 5.5 53 4.7 N 32 56 17 30 - - 0.0
27/07:00am 15.0 7.6 5.2 52 4.9 N 33 56 18 30 - - 0.0
27/06:30am 15.1 7.7 5.0 51 5.0 N 33 56 18 30 - - 0.0
27/06:00am 15.0 7.5 4.7 50 5.1 N 33 56 18 30 - - 0.0
27/05:30am 15.0 7.7 4.4 49 5.2 N 32 52 17 28 - - 0.0
27/05:00am 14.9 7.4 4.3 49 5.2 N 33 61 18 33 - - 0.0
27/04:30am 15.0 7.6 4.1 48 5.3 N 32 57 17 31 - - 0.0
27/04:00am 15.0 7.4 3.8 47 5.4 N 33 57 18 31 - - 0.0
27/03:30am 15.0 7.1 4.1 48 5.3 N 35 61 19 33 - - 0.0
27/03:01am 14.4 6.4 3.8 49 5.1 N 35 54 19 29 - - 0.0
27/03:00am 14.4 6.0 3.8 49 5.1 NNE 37 54 20 29 - - 0.0
27/02:30am 14.6 6.1 3.4 47 5.3 N 37 59 20 32 - - 0.0
27/02:00am 14.7 6.2 2.9 45 5.6 N 37 63 20 34 - - 0.0
27/01:30am 15.0 6.8 2.5 43 5.9 N 35 54 19 29 - - 0.0
27/01:00am 15.2 7.0 2.7 43 5.9 N 35 59 19 32 - - 0.0
27/12:30am 15.2 7.5 2.4 42 6.0 N 32 54 17 29 - - 0.0
27/12:00am 15.6 7.4 2.7 42 6.1 N 35 61 19 33 - - 0.0
 
Date/Time
EST
Temp
°C
App
Temp
°C
Dew
Point
Rel
Hum
%
Delta-T
°C
Wind Press
QNH
hPa
Press
MSL
hPa
Rain
since 9 am
mm
Dir
 
Spd
km/h
Gust
km/h
Spd
kts
Gust
kts
26/11:30pm 15.8 8.1 3.3 43 6.0 NNE 33 61 18 33 - - 0.0
26/11:00pm 15.9 7.4 3.4 43 6.0 N 37 59 20 32 - - 0.0
26/10:30pm 15.9 8.8 3.4 43 6.0 NNE 30 54 16 29 - - 0.0
26/10:00pm 16.0 8.4 2.8 41 6.3 N 32 54 17 29 - - 0.0
26/09:33pm 16.2 8.3 2.2 39 6.6 NNE 33 54 18 29 - - 0.0
26/09:30pm 16.2 8.2 1.9 38 6.7 NNE 33 50 18 27 - - 0.0
26/09:00pm 16.4 8.3 1.3 36 7.0 N 33 52 18 28 - - 0.0
26/08:30pm 16.5 8.3 0.6 34 7.2 N 33 56 18 30 - - 0.0
26/08:01pm 16.6 8.7 1.1 35 7.1 NNE 32 50 17 27 - - 0.0
26/08:00pm 16.6 8.5 1.1 35 7.1 N 33 50 18 27 - - 0.0
26/07:30pm 16.8 9.3 0.9 34 7.3 NNE 30 56 16 30 - - 0.0
26/07:01pm 16.8 9.6 0.9 34 7.3 N 28 46 15 25 - - 0.0
26/07:00pm 16.8 9.6 0.9 34 7.3 N 28 43 15 23 - - 0.0
26/06:30pm 16.9 11.3 1.4 35 7.2 N 20 32 11 17 - - 0.0
26/06:00pm 17.0 11.1 1.4 35 7.3 N 22 35 12 19 - - 0.0
26/05:30pm 17.5 11.6 1.9 35 7.4 N 22 37 12 20 - - 0.0
26/05:00pm 18.2 13.3 2.1 34 7.7 N 17 35 9 19 - - 0.0
26/04:30pm 18.7 13.4 2.1 33 7.9 N 19 37 10 20 - - 0.0
26/04:00pm 19.1 13.8 1.6 31 8.3 N 19 33 10 18 - - 0.0
26/03:30pm 19.8 14.3 1.7 30 8.7 N 20 33 11 18 - - 0.0
26/03:00pm 20.5 15.3 2.3 30 8.9 N 19 37 10 20 - - 0.0
26/02:30pm 20.9 15.7 2.2 29 9.1 N 19 37 10 20 - - 0.0
26/02:00pm 20.7 15.4 2.0 29 9.1 N 19 44 10 24 - - 0.0
26/01:30pm 20.7 14.8 2.0 29 9.1 N 22 35 12 19 - - 0.0
26/01:00pm 20.9 15.8 3.2 31 8.8 N 19 37 10 20 - - 0.0
26/12:30pm 20.7 15.2 3.9 33 8.4 N 22 43 12 23 - - 0.0
26/12:00pm 20.4 14.8 3.6 33 8.4 N 22 39 12 21 - - 0.0

Other Formats:

Comma delimited format used in spreadsheet applications
http://www.bom.gov.au/fwo/IDV60801/IDV60801.94835.axf

JavaScript Object Notation format (JSON) in row-major order
http://www.bom.gov.au/fwo/IDV60801/IDV60801.94835.json